Time;durP1;ratioP1;P1;durP2;ratioP2;P2;SDS_P1;SDS_P2;PMS_P1;PMS_P2;Temp;Humidity;BMP_temperature;BMP_pressure;BME280_temperature;BME280_humidity;BME280_pressure;Samples;Min_cycle;Max_cycle;Signal;HPM_P1;HPM_P2
2023/02/12 00:02:07;;;;;;;8.97;8.07;;;;;;;7.06;100.00;103848.75;5114688;28;20128;-37
2023/02/12 00:04:33;;;;;;;10.10;8.03;;;;;;;6.86;100.00;103820.91;5114990;28;20038;-37
2023/02/12 00:06:58;;;;;;;9.88;8.20;;;;;;;7.02;100.00;103841.94;5114047;28;20024;-37
2023/02/12 00:09:23;;;;;;;10.03;8.03;;;;;;;7.04;100.00;103839.13;5114108;28;20110;-37
2023/02/12 00:11:49;;;;;;;9.23;7.70;;;;;;;7.01;100.00;103848.31;5114029;28;20473;-37
2023/02/12 00:14:14;;;;;;;8.43;7.60;;;;;;;7.04;100.00;103847.22;5113605;28;20398;-37
2023/02/12 00:16:40;;;;;;;9.30;7.17;;;;;;;6.99;100.00;103842.22;5113778;28;20028;-37
2023/02/12 00:19:05;;;;;;;10.37;7.67;;;;;;;6.99;100.00;103844.06;5114272;28;20110;-37
2023/02/12 00:21:30;;;;;;;10.23;6.80;;;;;;;7.02;100.00;103843.78;5113930;28;20492;-37
2023/02/12 00:23:56;;;;;;;7.43;6.53;;;;;;;7.04;100.00;103853.44;5113711;28;20421;-37
2023/02/12 00:26:22;;;;;;;7.90;7.10;;;;;;;7.02;100.00;103849.16;5114723;28;20103;-37
2023/02/12 00:28:48;;;;;;;10.18;7.38;;;;;;;6.95;100.00;103840.78;5113879;28;20031;-37
2023/02/12 00:31:14;;;;;;;;;;;;;;;7.07;100.00;103850.47;5114237;28;20035;-37
2023/02/12 00:33:40;;;;;;;7.75;7.00;;;;;;;7.02;100.00;103854.53;5115735;28;19953;-37
2023/02/12 00:36:07;;;;;;;6.50;5.88;;;;;;;7.02;100.00;103857.22;5118811;27;20459;-37
2023/02/12 00:38:32;;;;;;;7.35;6.25;;;;;;;7.01;100.00;103853.69;5117577;27;20088;-37
2023/02/12 00:40:58;;;;;;;7.67;6.30;;;;;;;7.00;100.00;103859.22;5118732;28;20467;-37
2023/02/12 00:43:23;;;;;;;8.87;7.63;;;;;;;6.96;100.00;103862.16;5118052;28;20328;-37
2023/02/12 00:45:48;;;;;;;8.40;7.03;;;;;;;6.87;100.00;103854.88;5117778;28;20024;-37
2023/02/12 00:48:14;;;;;;;8.73;7.83;;;;;;;6.88;100.00;103853.94;5117430;28;20036;-37
2023/02/12 00:50:40;;;;;;;8.95;8.05;;;;;;;6.91;100.00;103855.47;5117703;28;20038;-37
2023/02/12 00:53:06;;;;;;;8.03;7.23;;;;;;;6.94;100.00;103847.16;5117463;28;20031;-37
2023/02/12 00:55:32;;;;;;;7.80;7.05;;;;;;;6.91;100.00;103847.41;5118430;28;20052;-37
2023/02/12 00:57:58;;;;;;;8.18;6.55;;;;;;;6.92;100.00;103838.34;5117539;28;20023;-37
2023/02/12 01:00:23;;;;;;;8.43;6.30;;;;;;;6.93;100.00;103843.63;5118045;28;20028;-37
2023/02/12 01:02:49;;;;;;;9.70;7.13;;;;;;;6.93;100.00;103840.94;5117944;28;20371;-37
2023/02/12 01:05:14;;;;;;;9.27;7.30;;;;;;;6.93;100.00;103843.63;5117184;28;20102;-37
2023/02/12 01:07:39;;;;;;;7.10;6.00;;;;;;;6.97;100.00;103845.03;5117652;28;20024;-38
2023/02/12 01:10:06;;;;;;;7.67;6.87;;;;;;;6.87;100.00;103832.53;5117286;28;20016;-38
2023/02/12 01:12:32;;;;;;;8.18;7.38;;;;;;;6.91;100.00;103848.25;5117113;28;20147;-38
2023/02/12 01:14:57;;;;;;;8.02;7.22;;;;;;;6.89;100.00;103847.56;5118091;28;20059;-37
2023/02/12 01:17:23;;;;;;;7.63;6.17;;;;;;;6.85;100.00;103829.97;5116930;28;20048;-37
2023/02/12 01:19:48;;;;;;;7.03;6.32;;;;;;;6.85;100.00;103837.19;5117211;28;20016;-37
2023/02/12 01:22:14;;;;;;;7.57;6.73;;;;;;;6.90;100.00;103843.03;5117344;28;20118;-37
2023/02/12 01:24:39;;;;;;;7.97;6.90;;;;;;;6.89;100.00;103842.19;5117369;28;20394;-37
2023/02/12 01:27:04;;;;;;;9.70;7.53;;;;;;;6.80;100.00;103836.75;5116956;28;20024;-37
2023/02/12 01:29:30;;;;;;;9.87;7.40;;;;;;;6.81;100.00;103833.06;5117477;28;20077;-37
2023/02/12 01:31:55;;;;;;;7.73;6.93;;;;;;;6.86;100.00;103841.59;5116544;28;20050;-37
2023/02/12 01:34:20;;;;;;;8.03;6.50;;;;;;;6.83;100.00;103828.38;5116879;28;20059;-37
2023/02/12 01:36:46;;;;;;;5.93;5.33;;;;;;;6.91;100.00;103847.41;5117605;28;20020;-37
2023/02/12 01:39:11;;;;;;;7.10;6.37;;;;;;;6.89;100.00;103841.31;5116866;28;20467;-37
2023/02/12 01:41:41;;;;;;;8.17;7.30;;;;;;;6.86;100.00;103842.44;5116791;28;20078;-37
2023/02/12 01:44:14;;;;;;;8.23;7.00;;;;;;;6.81;100.00;103836.59;5116068;28;20050;-37
2023/02/12 01:46:41;;;;;;;7.82;6.15;;;;;;;6.83;100.00;103825.69;5116603;28;20032;-37
2023/02/12 01:49:14;;;;;;;7.18;6.47;;;;;;;6.87;100.00;103841.44;5116729;28;20077;-37
2023/02/12 01:51:42;;;;;;;7.40;6.70;;;;;;;6.83;100.00;103831.06;5116414;28;20119;-37
2023/02/12 01:54:10;;;;;;;8.18;7.05;;;;;;;6.85;100.00;103840.72;5116549;28;20466;-37
2023/02/12 01:56:35;;;;;;;8.77;7.40;;;;;;;6.84;100.00;103835.50;5117222;28;20019;-37
2023/02/12 01:59:01;;;;;;;9.75;7.78;;;;;;;6.79;100.00;103822.44;5116676;28;20039;-37
2023/02/12 02:01:29;;;;;;;8.30;7.18;;;;;;;6.82;100.00;103841.00;5116403;28;20478;-37
2023/02/12 02:04:00;;;;;;;9.18;7.03;;;;;;;6.74;100.00;103832.75;5116292;28;20027;-37
2023/02/12 02:06:37;;;;;;;10.25;7.85;;;;;;;6.81;100.00;103833.91;5116275;27;20043;-37
2023/02/12 02:09:03;;;;;;;;;;;;;;;6.88;100.00;103840.47;5117306;28;20027;-37
2023/02/12 02:17:06;;;;;;;8.43;7.63;;;;;;;6.72;100.00;103830.19;5116121;28;20163;-37
2023/02/12 02:19:47;;;;;;;8.95;7.68;;;;;;;6.79;100.00;103841.28;5116317;28;20062;-37
2023/02/12 02:22:47;;;;;;;6.32;5.70;;;;;;;6.81;100.00;103836.59;5116539;28;20028;-37
2023/02/12 02:25:43;;;;;;;7.72;6.13;;;;;;;6.80;100.00;103834.06;5116182;27;20110;-37
2023/02/12 02:28:32;;;;;;;7.80;6.70;;;;;;;6.75;100.00;103823.69;5116373;28;20027;-37
2023/02/12 02:31:26;;;;;;;8.38;7.55;;;;;;;6.78;100.00;103828.78;5115453;28;20543;-37
2023/02/12 02:34:02;;;;;;;8.95;7.22;;;;;;;6.77;100.00;103831.63;5115415;28;20506;-37
2023/02/12 02:36:52;;;;;;;8.60;7.25;;;;;;;6.79;100.00;103837.72;5115935;28;20039;-37
2023/02/12 02:39:33;;;;;;;7.57;6.70;;;;;;;6.74;100.00;103831.91;5116305;28;20128;-37
2023/02/12 02:41:58;;;;;;;7.80;6.55;;;;;;;6.78;100.00;103841.38;5116079;28;20057;-37
2023/02/12 02:44:36;;;;;;;6.93;6.00;;;;;;;6.77;100.00;103826.25;5116307;28;20471;-37
2023/02/12 02:47:07;;;;;;;7.57;6.78;;;;;;;6.73;100.00;103831.03;5116278;28;20038;-36
2023/02/12 02:49:58;;;;;;;8.50;7.15;;;;;;;6.68;100.00;103806.38;5116251;27;20028;-37
2023/02/12 02:52:37;;;;;;;9.35;7.50;;;;;;;6.67;100.00;103824.34;5116131;28;20024;-37
2023/02/12 02:55:06;;;;;;;8.00;7.20;;;;;;;6.66;100.00;103828.03;5115622;28;20034;-37
2023/02/12 02:57:52;;;;;;;8.27;7.30;;;;;;;6.67;100.00;103836.94;5114969;28;20424;-37
2023/02/12 03:00:28;;;;;;;9.15;7.35;;;;;;;6.68;100.00;103844.00;5115490;27;20114;-37
2023/02/12 03:02:59;;;;;;;8.40;7.60;;;;;;;6.66;100.00;103843.31;5115721;28;20088;-37
2023/02/12 03:05:36;;;;;;;7.05;6.13;;;;;;;6.70;100.00;103834.84;5115917;28;20425;-37
2023/02/12 03:08:11;;;;;;;8.50;6.25;;;;;;;6.72;100.00;103832.00;5115041;28;20020;-37
2023/02/12 03:10:48;;;;;;;8.32;6.00;;;;;;;6.68;100.00;103814.44;5115543;28;20031;-37
2023/02/12 03:13:25;;;;;;;8.30;7.10;;;;;;;6.62;100.00;103798.84;5115086;28;20467;-37
2023/02/12 03:15:58;;;;;;;;;;;;;;;6.79;100.00;103824.28;5116229;28;20036;-37
2023/02/12 03:18:28;;;;;;;10.27;7.25;;;;;;;6.69;100.00;103818.84;5114613;28;20424;-36
2023/02/12 03:20:59;;;;;;;8.48;6.78;;;;;;;6.66;100.00;103825.34;5115055;28;20044;-36
2023/02/12 03:23:34;;;;;;;9.13;7.85;;;;;;;6.66;100.00;103828.03;5114821;28;20463;-36
2023/02/12 03:26:08;;;;;;;6.95;6.28;;;;;;;6.71;100.00;103827.63;5114745;28;20072;-36
2023/02/12 03:28:37;;;;;;;6.38;5.47;;;;;;;6.70;100.00;103821.41;5114660;28;20481;-36
2023/02/12 03:31:27;;;;;;;7.32;6.47;;;;;;;6.68;100.00;103828.72;5114829;28;20059;-36
2023/02/12 03:34:14;;;;;;;7.35;6.55;;;;;;;6.69;100.00;103827.78;5113825;28;20429;-36
2023/02/12 03:36:49;;;;;;;7.35;6.65;;;;;;;6.72;100.00;103823.94;5114484;28;20039;-36
2023/02/12 03:39:27;;;;;;;9.55;6.90;;;;;;;6.69;100.00;103829.59;5114476;28;20539;-36
2023/02/12 03:42:07;;;;;;;8.60;7.63;;;;;;;6.66;100.00;103827.19;5114743;28;20050;-36
2023/02/12 03:44:59;;;;;;;8.93;8.02;;;;;;;6.65;100.00;103817.41;5114751;28;20031;-36
2023/02/12 03:47:50;;;;;;;9.45;8.02;;;;;;;6.60;100.00;103822.34;5083308;28;20100;-36
2023/02/12 03:50:28;;;;;;;9.85;7.47;;;;;;;6.60;100.00;103823.19;5115177;27;20038;-36
2023/02/12 03:52:53;;;;;;;8.00;7.20;;;;;;;6.60;100.00;103820.50;5114780;28;20019;-36
2023/02/12 03:55:18;;;;;;;8.07;7.13;;;;;;;6.61;100.00;103816.81;5113312;28;20037;-37
2023/02/12 03:57:50;;;;;;;9.43;8.53;;;;;;;6.55;100.00;103822.72;5114233;28;20111;-37
2023/02/12 04:00:22;;;;;;;8.35;7.55;;;;;;;6.56;100.00;103828.94;5114152;28;20700;-37
2023/02/12 04:02:47;;;;;;;6.90;6.20;;;;;;;6.57;100.00;103826.13;5114484;28;20038;-37
2023/02/12 04:05:19;;;;;;;12.18;8.82;;;;;;;6.53;100.00;103823.81;5113869;28;20027;-37
2023/02/12 04:07:45;;;;;;;6.65;6.05;;;;;;;6.59;100.00;103824.16;5113642;28;20474;-37
2023/02/12 04:10:11;;;;;;;8.05;7.22;;;;;;;6.54;100.00;103814.78;5114083;28;20081;-37
2023/02/12 04:12:50;;;;;;;10.00;7.45;;;;;;;6.57;100.00;103831.50;5114066;28;20093;-37
2023/02/12 04:15:43;;;;;;;9.90;8.57;;;;;;;6.55;100.00;103833.47;5114062;28;20066;-37
2023/02/12 04:18:18;;;;;;;10.00;7.40;;;;;;;6.57;100.00;103836.88;5114240;28;20348;-37
2023/02/12 04:20:56;;;;;;;9.82;8.10;;;;;;;6.54;100.00;103833.59;5114241;28;20027;-37
2023/02/12 04:23:57;;;;;;;9.30;8.13;;;;;;;6.56;100.00;103839.72;5114225;28;20031;-37
2023/02/12 04:26:41;;;;;;;10.77;8.23;;;;;;;6.54;100.00;103842.53;5031479;28;20029;-37
2023/02/12 04:29:34;;;;;;;8.80;7.70;;;;;;;6.55;100.00;103843.38;5104934;28;20420;-37
2023/02/12 04:32:05;;;;;;;10.30;9.23;;;;;;;6.51;100.00;103842.78;5113654;28;20378;-37
2023/02/12 04:35:07;;;;;;;10.23;8.75;;;;;;;6.53;100.00;103853.41;5113421;28;20086;-37
2023/02/12 04:37:44;;;;;;;13.60;8.80;;;;;;;6.49;100.00;103849.25;5113688;28;20024;-37
2023/02/12 04:40:16;;;;;;;9.82;8.35;;;;;;;6.51;100.00;103847.31;5113969;28;20043;-37
2023/02/12 04:42:50;;;;;;;7.15;6.45;;;;;;;6.47;100.00;103844.03;5113806;28;20028;-36
2023/02/12 04:45:22;;;;;;;9.63;8.65;;;;;;;6.52;100.00;103854.38;5114360;28;20028;-36
2023/02/12 04:47:48;;;;;;;8.52;7.72;;;;;;;6.51;100.00;103858.91;5114079;28;20111;-36
2023/02/12 04:50:13;;;;;;;9.73;8.83;;;;;;;6.51;100.00;103852.69;5113735;28;20451;-36
2023/02/12 04:52:38;;;;;;;7.65;6.88;;;;;;;6.49;100.00;103842.06;5113334;28;20028;-36
2023/02/12 04:55:04;;;;;;;12.03;8.70;;;;;;;6.44;100.00;103842.47;5113709;28;20114;-36
2023/02/12 04:57:29;;;;;;;8.15;7.35;;;;;;;6.49;100.00;103849.25;5113531;28;20059;-37
2023/02/12 04:59:55;;;;;;;7.77;6.97;;;;;;;6.42;100.00;103830.97;5113706;28;20026;-37
2023/02/12 05:02:20;;;;;;;10.35;9.30;;;;;;;6.47;100.00;103849.41;5113530;28;20054;-37
2023/02/12 05:04:48;;;;;;;9.40;8.50;;;;;;;6.44;100.00;103847.84;5113868;28;20035;-37
2023/02/12 05:07:13;;;;;;;8.65;7.80;;;;;;;6.41;100.00;103837.34;5113486;28;20670;-37
2023/02/12 05:09:39;;;;;;;9.40;8.47;;;;;;;6.46;100.00;103855.78;5113505;28;20118;-37
2023/02/12 05:12:04;;;;;;;12.53;9.17;;;;;;;6.45;100.00;103852.22;5113132;28;20285;-37
2023/02/12 05:14:30;;;;;;;10.10;9.10;;;;;;;6.47;100.00;103856.63;5114609;28;20135;-37
2023/02/12 05:16:55;;;;;;;10.17;9.00;;;;;;;6.48;100.00;103858.31;5113090;28;20364;-37
2023/02/12 05:19:20;;;;;;;10.20;8.90;;;;;;;6.38;100.00;103834.06;5114421;28;20027;-37
2023/02/12 05:21:49;;;;;;;11.13;9.80;;;;;;;6.42;100.00;103847.09;5117083;28;20038;-37
2023/02/12 05:24:15;;;;;;;10.23;8.85;;;;;;;6.49;100.00;103846.56;5117663;28;20019;-37
2023/02/12 05:26:40;;;;;;;10.25;9.25;;;;;;;6.46;100.00;103847.72;5117051;28;20038;-37
2023/02/12 05:29:06;;;;;;;10.30;9.23;;;;;;;6.36;100.00;103836.88;5117586;28;20027;-37
2023/02/12 05:31:31;;;;;;;10.13;9.03;;;;;;;6.49;100.00;103854.63;5116871;28;20435;-37
2023/02/12 05:33:57;;;;;;;12.00;9.77;;;;;;;6.48;100.00;103858.31;5116640;28;20304;-37
2023/02/12 05:36:23;;;;;;;10.90;8.93;;;;;;;6.41;100.00;103845.41;5116850;28;20112;-37
2023/02/12 05:38:51;;;;;;;9.50;8.50;;;;;;;6.40;100.00;103843.72;5117693;28;20360;-37
2023/02/12 05:41:22;;;;;;;9.23;8.32;;;;;;;6.39;100.00;103836.63;5116986;28;20497;-37
2023/02/12 05:43:48;;;;;;;9.25;8.35;;;;;;;6.45;100.00;103849.53;5116678;28;20027;-37
2023/02/12 05:46:14;;;;;;;11.15;9.40;;;;;;;6.43;100.00;103856.88;5117247;28;20031;-37
2023/02/12 05:48:39;;;;;;;9.90;8.90;;;;;;;6.43;100.00;103856.03;5116579;28;20111;-37
2023/02/12 05:51:06;;;;;;;9.83;8.83;;;;;;;6.42;100.00;103860.53;5116893;28;20112;-37
2023/02/12 05:53:32;;;;;;;9.80;8.80;;;;;;;6.44;100.00;103858.59;5117060;28;20031;-37
2023/02/12 05:56:18;;;;;;;9.95;8.30;;;;;;;6.45;100.00;103856.75;5117139;28;20397;-37
2023/02/12 05:58:46;;;;;;;10.35;9.32;;;;;;;6.38;100.00;103863.63;5116729;28;20024;-37
2023/02/12 06:01:16;;;;;;;10.07;9.00;;;;;;;6.36;100.00;103855.69;5116662;28;20027;-37
2023/02/12 06:03:42;;;;;;;11.82;10.60;;;;;;;6.37;100.00;103868.16;5116337;28;20058;-36
2023/02/12 06:06:08;;;;;;;12.15;10.60;;;;;;;6.36;100.00;103866.44;5116833;28;20073;-37
2023/02/12 06:08:33;;;;;;;13.95;9.07;;;;;;;6.38;100.00;103859.09;5115930;28;20494;-37
2023/02/12 06:11:04;;;;;;;10.57;9.40;;;;;;;6.38;100.00;103863.63;5116484;28;20028;-37
2023/02/12 06:13:30;;;;;;;9.75;8.75;;;;;;;6.40;100.00;103861.69;5116708;28;20142;-37
2023/02/12 06:15:56;;;;;;;11.65;10.45;;;;;;;6.35;100.00;103870.13;5116957;28;20364;-37
2023/02/12 06:18:22;;;;;;;11.63;10.52;;;;;;;6.38;100.00;103863.63;5116036;28;20127;-37
2023/02/12 06:20:47;;;;;;;10.90;9.80;;;;;;;6.37;100.00;103867.28;5115777;28;20038;-37
2023/02/12 06:23:13;;;;;;;12.03;10.50;;;;;;;6.37;100.00;103865.47;5115506;28;20027;-37
2023/02/12 06:25:38;;;;;;;11.87;10.73;;;;;;;6.36;100.00;103870.97;5115677;28;20031;-36
2023/02/12 06:28:03;;;;;;;9.50;8.47;;;;;;;6.36;100.00;103877.19;5115748;28;20743;-37
2023/02/12 06:30:30;;;;;;;12.47;10.07;;;;;;;6.39;100.00;103874.25;5116411;28;20020;-36
2023/02/12 06:32:56;;;;;;;10.73;9.63;;;;;;;6.38;100.00;103871.69;5116422;28;20063;-37
2023/02/12 06:35:21;;;;;;;12.40;11.20;;;;;;;6.38;100.00;103880.59;5116307;28;20119;-37
2023/02/12 06:37:47;;;;;;;12.40;11.10;;;;;;;6.36;100.00;103877.19;5115433;28;20368;-37
2023/02/12 06:40:12;;;;;;;12.90;11.60;;;;;;;6.36;100.00;103871.81;5115941;28;20028;-37
2023/02/12 06:42:38;;;;;;;12.30;10.95;;;;;;;6.28;100.00;103868.91;5115838;28;20485;-37
2023/02/12 06:45:03;;;;;;;10.70;9.70;;;;;;;6.32;100.00;103869.53;5115273;28;20518;-37
2023/02/12 06:47:29;;;;;;;12.13;10.85;;;;;;;6.29;100.00;103865.25;5115671;28;20035;-37
2023/02/12 06:49:54;;;;;;;11.50;10.30;;;;;;;6.36;100.00;103885.25;5115462;28;20030;-37
2023/02/12 06:52:20;;;;;;;12.87;11.53;;;;;;;6.35;100.00;103891.63;5115259;28;20031;-37
2023/02/12 06:54:45;;;;;;;9.93;8.93;;;;;;;6.37;100.00;103883.44;5116156;28;20035;-37
2023/02/12 06:57:11;;;;;;;9.95;8.95;;;;;;;6.36;100.00;103893.31;5115280;28;20047;-37
2023/02/12 06:59:36;;;;;;;13.47;11.07;;;;;;;6.35;100.00;103891.63;5114955;28;20034;-37
2023/02/12 07:02:02;;;;;;;12.17;10.97;;;;;;;6.34;100.00;103891.72;5115402;28;20059;-37
2023/02/12 07:04:27;;;;;;;13.45;11.43;;;;;;;6.28;100.00;103887.72;5115126;28;20030;-37
2023/02/12 07:06:52;;;;;;;14.17;10.73;;;;;;;6.36;100.00;103900.53;5115046;28;20024;-37
2023/02/12 07:09:18;;;;;;;14.00;11.80;;;;;;;6.33;100.00;103903.47;5115391;28;20024;-37
2023/02/12 07:11:43;;;;;;;13.13;11.30;;;;;;;6.30;100.00;103887.63;5114669;28;20092;-37
2023/02/12 07:14:14;;;;;;;12.93;11.43;;;;;;;6.36;100.00;103901.38;5115406;28;20050;-37
2023/02/12 07:16:39;;;;;;;13.68;12.23;;;;;;;6.33;100.00;103904.31;5115179;28;20152;-37
2023/02/12 07:19:05;;;;;;;12.77;11.43;;;;;;;6.34;100.00;103900.66;5114902;28;20644;-37
2023/02/12 07:21:30;;;;;;;12.73;11.43;;;;;;;6.34;100.00;103910.56;5114874;28;20037;-37
2023/02/12 07:23:56;;;;;;;13.38;11.98;;;;;;;6.34;100.00;103906.03;5115622;28;20034;-37
2023/02/12 07:26:21;;;;;;;15.30;12.37;;;;;;;6.35;100.00;103899.69;5115079;28;20103;-37
2023/02/12 07:28:48;;;;;;;13.33;11.93;;;;;;;6.27;100.00;103893.25;5114715;28;20477;-37
2023/02/12 07:31:19;;;;;;;13.48;11.95;;;;;;;6.32;100.00;103913.38;5114627;28;20034;-37
2023/02/12 07:33:45;;;;;;;13.77;12.32;;;;;;;6.31;100.00;103906.31;5115485;28;20066;-37
2023/02/12 07:36:16;;;;;;;13.82;12.20;;;;;;;6.21;100.00;103888.38;5114910;28;20051;-37
2023/02/12 07:38:41;;;;;;;13.45;12.05;;;;;;;6.34;100.00;103911.41;5114491;28;20062;-37
2023/02/12 07:41:15;;;;;;;13.75;12.35;;;;;;;6.35;100.00;103921.19;5114573;28;20047;-37
2023/02/12 07:43:42;;;;;;;13.10;11.75;;;;;;;6.32;100.00;103913.38;5114741;28;20375;-37
2023/02/12 07:46:18;;;;;;;13.25;11.85;;;;;;;6.38;100.00;103928.13;5114172;28;20038;-37
2023/02/12 07:48:44;;;;;;;13.77;11.80;;;;;;;6.39;100.00;103924.47;5114024;28;20020;-37
2023/02/12 07:51:13;;;;;;;12.73;11.25;;;;;;;6.40;100.00;103924.34;5114364;28;20443;-36
2023/02/12 07:53:39;;;;;;;12.75;11.45;;;;;;;6.42;100.00;103924.22;5114252;28;20023;-36
2023/02/12 07:56:12;;;;;;;13.10;11.55;;;;;;;6.43;100.00;103929.44;5114552;28;20061;-36
2023/02/12 07:58:39;;;;;;;13.10;11.70;;;;;;;6.38;100.00;103915.53;5114247;28;20027;-37
2023/02/12 08:01:18;;;;;;;13.65;12.25;;;;;;;6.49;100.00;103924.53;5114225;28;20036;-37
2023/02/12 08:03:45;;;;;;;14.68;12.05;;;;;;;6.45;100.00;103911.38;5114650;28;20417;-37
2023/02/12 08:06:13;;;;;;;12.18;11.00;;;;;;;6.51;100.00;103918.06;5114395;28;20024;-37
2023/02/12 08:08:38;;;;;;;14.15;11.77;;;;;;;6.54;100.00;103925.00;5113955;28;20024;-37
2023/02/12 08:11:09;;;;;;;14.33;12.83;;;;;;;6.54;100.00;103930.38;5114104;28;20024;-37
2023/02/12 08:13:35;;;;;;;12.68;11.48;;;;;;;6.57;100.00;103933.66;5114117;28;20047;-37
2023/02/12 08:16:03;;;;;;;13.68;12.25;;;;;;;6.60;100.00;103929.88;5114876;28;20077;-37
2023/02/12 08:18:30;;;;;;;14.25;12.85;;;;;;;6.62;100.00;103919.84;5113649;28;20467;-37
2023/02/12 08:21:04;;;;;;;15.48;13.88;;;;;;;6.61;100.00;103923.53;5113680;28;20059;-37
2023/02/12 08:23:30;;;;;;;17.05;13.52;;;;;;;6.68;100.00;103930.06;5113972;28;20038;-37
2023/02/12 08:26:07;;;;;;;15.57;13.70;;;;;;;6.68;100.00;103936.31;5114848;28;20055;-37
2023/02/12 08:28:33;;;;;;;14.27;12.82;;;;;;;6.72;100.00;103936.91;5113963;28;20440;-37
2023/02/12 08:31:03;;;;;;;13.68;12.38;;;;;;;6.75;100.00;103939.34;5114191;28;20077;-36
2023/02/12 08:33:29;;;;;;;13.15;11.85;;;;;;;6.78;100.00;103941.75;5113811;28;20041;-36
2023/02/12 08:36:08;;;;;;;13.65;11.65;;;;;;;6.76;100.00;103932.13;5114163;28;20031;-36
2023/02/12 08:38:34;;;;;;;13.02;11.73;;;;;;;6.80;100.00;103945.19;5113750;28;20020;-37
2023/02/12 08:41:04;;;;;;;14.98;11.95;;;;;;;6.84;100.00;103952.00;5114373;28;20144;-37
2023/02/12 08:43:29;;;;;;;13.27;11.88;;;;;;;6.86;100.00;103949.19;5113849;28;20031;-37
2023/02/12 08:46:00;;;;;;;14.00;12.50;;;;;;;6.86;100.00;103950.03;5114057;28;20042;-37
2023/02/12 08:48:26;;;;;;;12.85;11.50;;;;;;;6.88;100.00;103950.78;5113532;28;20031;-37
2023/02/12 08:50:51;;;;;;;11.00;9.90;;;;;;;6.92;100.00;103954.03;5113762;28;20039;-36
2023/02/12 08:53:16;;;;;;;11.90;10.70;;;;;;;6.95;100.00;103951.09;5113728;28;20035;-36
2023/02/12 08:55:50;;;;;;;12.50;11.30;;;;;;;6.90;100.00;103940.72;5116104;28;20103;-36
2023/02/12 08:58:15;;;;;;;12.23;10.93;;;;;;;6.98;100.00;103953.53;5117674;28;20051;-36
2023/02/12 09:00:41;;;;;;;12.15;10.90;;;;;;;6.99;100.00;103947.16;5118133;28;20031;-36
2023/02/12 09:03:06;;;;;;;11.83;10.57;;;;;;;7.02;100.00;103949.56;5117826;28;20032;-37
2023/02/12 09:05:31;;;;;;;11.37;10.17;;;;;;;7.10;100.00;103962.38;5117537;28;20258;-37
2023/02/12 09:07:57;;;;;;;12.47;11.13;;;;;;;7.06;100.00;103947.47;5117428;28;20039;-37
2023/02/12 09:10:22;;;;;;;10.20;9.13;;;;;;;7.15;100.00;103961.00;5118272;28;20027;-37
2023/02/12 09:12:47;;;;;;;12.90;11.27;;;;;;;7.17;100.00;103958.16;5118758;27;20047;-37
2023/02/12 09:15:13;;;;;;;10.85;9.75;;;;;;;7.23;100.00;103965.72;5134012;27;20047;-37
2023/02/12 09:17:40;;;;;;;13.63;11.03;;;;;;;7.23;100.00;103957.66;5117646;28;20032;-37
2023/02/12 09:20:06;;;;;;;12.82;11.38;;;;;;;7.23;100.00;103969.25;5116924;28;20327;-37
2023/02/12 09:22:31;;;;;;;10.77;9.68;;;;;;;7.30;100.00;103968.72;5116881;28;20065;-37
2023/02/12 09:24:57;;;;;;;11.50;9.70;;;;;;;7.35;100.00;103964.66;5115977;28;20031;-37
2023/02/12 09:27:22;;;;;;;18.87;11.17;;;;;;;7.36;100.00;103968.19;5117094;28;20027;-37
2023/02/12 09:29:47;;;;;;;11.33;10.23;;;;;;;7.38;100.00;103963.53;5117149;28;20023;-38
2023/02/12 09:32:13;;;;;;;13.80;11.47;;;;;;;7.40;100.00;103970.47;5117175;28;20055;-37
2023/02/12 09:34:38;;;;;;;13.63;11.47;;;;;;;7.44;100.00;103963.84;5116776;28;20496;-37
2023/02/12 09:37:03;;;;;;;10.73;9.63;;;;;;;7.48;100.00;103962.59;5116886;28;20080;-37
2023/02/12 09:39:29;;;;;;;12.33;11.03;;;;;;;7.48;100.00;103967.13;5116666;28;20051;-38
2023/02/12 09:42:16;;;;;;;12.32;10.75;;;;;;;7.49;100.00;103961.59;5116506;28;20080;-38
2023/02/12 09:45:15;;;;;;;13.00;11.55;;;;;;;7.45;100.00;103962.00;5117621;28;20107;-38
2023/02/12 09:48:02;;;;;;;12.82;11.18;;;;;;;7.46;100.00;103961.00;5116712;27;20097;-37
2023/02/12 09:50:51;;;;;;;11.93;10.27;;;;;;;7.59;100.00;103975.09;5116331;28;20034;-37
2023/02/12 09:53:21;;;;;;;12.85;11.60;;;;;;;7.51;100.00;103961.44;5116799;28;20019;-37
2023/02/12 09:55:46;;;;;;;11.57;10.38;;;;;;;7.59;100.00;103976.94;5117352;28;20027;-37
2023/02/12 09:58:29;;;;;;;11.82;10.35;;;;;;;7.65;100.00;103974.56;5116121;28;20383;-37
2023/02/12 10:00:54;;;;;;;13.70;12.30;;;;;;;7.65;100.00;103976.41;5116752;28;20054;-37
2023/02/12 10:03:20;;;;;;;11.00;9.83;;;;;;;7.63;100.00;103964.94;5116357;28;20110;-38
2023/02/12 10:05:57;;;;;;;13.43;10.88;;;;;;;7.65;100.00;103971.88;5116323;28;20027;-37
2023/02/12 10:08:35;;;;;;;;;;;;;;;7.75;100.00;103983.53;5117073;28;20412;-37
2023/02/12 10:11:18;;;;;;;12.73;11.38;;;;;;;7.59;100.00;103958.94;5116529;28;20416;-37
2023/02/12 10:14:19;;;;;;;15.00;12.63;;;;;;;7.62;100.00;103968.63;5116204;28;20486;-37
2023/02/12 10:17:06;;;;;;;12.25;10.95;;;;;;;7.74;100.00;103979.13;5116359;28;20131;-37
2023/02/12 10:19:45;;;;;;;12.48;11.07;;;;;;;7.77;100.00;103978.03;5116105;28;20080;-37
2023/02/12 10:22:31;;;;;;;13.80;12.50;;;;;;;7.78;100.00;103979.72;5116009;28;20395;-37
2023/02/12 10:25:22;;;;;;;14.50;13.05;;;;;;;7.80;100.00;103975.03;5115951;28;20032;-37
2023/02/12 10:28:00;;;;;;;13.90;12.45;;;;;;;7.74;100.00;103968.38;5116200;28;20031;-37
2023/02/12 10:30:53;;;;;;;13.18;11.80;;;;;;;7.81;100.00;103971.38;5116442;28;20050;-37
2023/02/12 10:33:38;;;;;;;14.45;12.95;;;;;;;7.83;100.00;103971.25;5115361;28;20040;-37
2023/02/12 10:36:36;;;;;;;14.32;12.82;;;;;;;7.79;100.00;103964.41;5115486;28;20534;-37
2023/02/12 10:39:13;;;;;;;14.35;12.85;;;;;;;7.84;100.00;103962.16;5116026;28;20019;-37
2023/02/12 10:42:01;;;;;;;14.48;12.98;;;;;;;7.89;100.00;103973.38;5116234;28;20031;-38
2023/02/12 10:44:27;;;;;;;11.88;10.68;;;;;;;7.89;100.00;103957.22;5116144;28;20030;-37
2023/02/12 10:46:53;;;;;;;14.20;12.77;;;;;;;7.94;100.00;103969.28;5115271;28;20028;-37
2023/02/12 10:49:19;;;;;;;15.20;13.70;;;;;;;7.95;100.00;103976.41;5115481;28;20055;-37
2023/02/12 10:52:09;;;;;;;14.93;12.20;;;;;;;7.96;100.00;103970.00;5115636;28;20027;-37
2023/02/12 10:54:37;;;;;;;13.20;11.88;;;;;;;7.93;100.00;103977.50;5115640;28;20119;-37
2023/02/12 10:57:21;;;;;;;15.38;12.50;;;;;;;7.91;100.00;103966.03;5115032;28;20098;-37
2023/02/12 10:59:48;;;;;;;14.32;12.82;;;;;;;7.90;100.00;103970.53;5115270;28;20020;-37
2023/02/12 11:02:31;;;;;;;12.20;9.93;;;;;;;7.97;100.00;103974.41;5114942;28;20546;-37
2023/02/12 11:04:58;;;;;;;13.48;12.07;;;;;;;7.97;100.00;103968.16;5115644;28;20028;-37
2023/02/12 11:07:25;;;;;;;13.10;11.82;;;;;;;7.93;100.00;103959.50;5115089;28;20394;-37
2023/02/12 11:09:54;;;;;;;12.88;11.55;;;;;;;8.02;100.00;103963.22;5115424;28;20031;-38
2023/02/12 11:12:25;;;;;;;12.75;11.50;;;;;;;7.99;100.00;103967.03;5114956;28;20080;-38
2023/02/12 11:14:53;;;;;;;13.70;12.35;;;;;;;7.99;100.00;103964.31;5115595;28;20024;-38
2023/02/12 11:17:40;;;;;;;13.10;11.75;;;;;;;8.03;100.00;103961.38;5114276;28;20070;-37
2023/02/12 11:20:17;;;;;;;12.25;11.05;;;;;;;8.07;100.00;103960.09;5114988;28;20040;-37
2023/02/12 11:23:00;;;;;;;12.75;11.45;;;;;;;8.07;100.00;103965.50;5114841;28;20031;-37
2023/02/12 11:25:29;;;;;;;13.85;11.27;;;;;;;8.07;100.00;103962.81;5115137;28;20250;-37
2023/02/12 11:28:04;;;;;;;13.27;11.27;;;;;;;8.07;100.00;103957.41;5114776;28;20106;-37
2023/02/12 11:30:30;;;;;;;13.25;11.07;;;;;;;8.11;100.00;103954.31;5115046;28;20446;-37
2023/02/12 11:33:14;;;;;;;13.43;12.02;;;;;;;8.14;100.00;103959.41;5115426;28;20059;-37
2023/02/12 11:35:49;;;;;;;12.25;11.05;;;;;;;8.13;100.00;103952.31;5114972;28;20084;-37
2023/02/12 11:38:23;;;;;;;12.80;11.50;;;;;;;8.15;100.00;103946.75;5114880;28;20035;-37
2023/02/12 11:40:48;;;;;;;13.07;11.77;;;;;;;8.15;100.00;103953.03;5114785;28;20479;-37